aviador You're here:

ZBYN Decoded Metar

TAIYUAN in CHINA
Report Time2018-06-24 22:30:00
UTC Time2018-06-24 22:41:45
Flight Rules vfr VFR
WindVRB at 2 kt
Visibility8000 m
Phenomena:Light Rain
Clouds:N/A
Expected CloudBase > 2,400 ft AGL from Temp-Dew spread
CeilingNone
Temp24°C (ISA +14)
Dew Point18°C (69% RH)
QNH1006 hPa
Density Alt4,701 ft
Elevation2,556 ft
Report Wrong Elevation
Raw Report
ZBYN 242230Z VRB01MPS 8000 -RA NSC 24/18 Q1006 NOSIG=

Extra information for ZBYN:More info

Metar Taf Metar & Taf Last 4 Metars F.Rules Stats Wind Profile Meteogram Temp Stats Airport Information Weather charts Add Link Nearby VenuesMetar ALERT Operation Metar Decoded Social comments